Time;durP1;ratioP1;P1;durP2;ratioP2;P2;SDS_P1;SDS_P2;PMS_P1;PMS_P2;Temp;Humidity;BMP_temperature;BMP_pressure;BME280_temperature;BME280_humidity;BME280_pressure;Samples;Min_cycle;Max_cycle;Signal;HPM_P1;HPM_P2
2022/06/24 00:01:14;;;;;;;17.25;16.25;;;;;;;;;;5052509;28;20037;-64
2022/06/24 00:03:44;;;;;;;14.70;13.80;;;;;;;;;;5054780;28;20036;-65
2022/06/24 00:06:16;;;;;;;14.55;13.75;;;;;;;;;;5049558;28;20034;-64
2022/06/24 00:09:11;;;;;;;16.50;15.52;;;;;;;;;;5056389;28;20033;-65
2022/06/24 00:11:37;;;;;;;16.45;15.55;;;;;;;;;;5040780;28;20041;-65
2022/06/24 00:14:08;;;;;;;15.60;14.70;;;;;;;;;;5053817;28;20033;-65
2022/06/24 00:16:54;;;;;;;15.52;14.63;;;;;;;;;;5053764;28;20029;-65
2022/06/24 00:19:20;;;;;;;15.63;14.73;;;;;;;;;;5052296;28;20036;-64
2022/06/24 00:22:07;;;;;;;16.15;15.15;;;;;;;;;;5049823;28;20037;-66
2022/06/24 00:24:35;;;;;;;15.02;14.18;;;;;;;;;;5049788;28;20064;-64
2022/06/24 00:27:00;;;;;;;15.00;14.13;;;;;;;;;;5049553;28;20601;-65
2022/06/24 00:29:29;;;;;;;14.02;13.23;;;;;;;;;;5052824;28;20075;-65
2022/06/24 00:32:08;;;;;;;14.85;13.98;;;;;;;;;;5054994;28;20094;-65
2022/06/24 00:34:35;;;;;;;13.57;12.77;;;;;;;;;;5053215;28;20029;-68
2022/06/24 00:37:23;;;;;;;13.05;12.25;;;;;;;;;;5053343;28;20110;-68
2022/06/24 00:39:48;;;;;;;13.25;12.45;;;;;;;;;;5050956;28;20354;-68
2022/06/24 00:42:14;;;;;;;12.13;11.43;;;;;;;;;;5049539;28;20035;-68
2022/06/24 00:44:47;;;;;;;14.35;10.32;;;;;;;;;;5052300;28;20338;-67
2022/06/24 00:47:15;;;;;;;10.25;9.65;;;;;;;;;;5051783;28;20157;-68
2022/06/24 00:49:42;;;;;;;11.80;11.10;;;;;;;;;;5054261;28;20041;-68
2022/06/24 00:52:08;;;;;;;13.82;13.02;;;;;;;;;;5055274;28;20060;-67
2022/06/24 00:54:34;;;;;;;12.00;11.30;;;;;;;;;;5057643;28;20524;-67
2022/06/24 00:56:59;;;;;;;12.57;11.85;;;;;;;;;;5055832;28;20057;-66
2022/06/24 00:59:25;;;;;;;10.35;9.75;;;;;;;;;;5055626;28;20024;-66
2022/06/24 01:01:51;;;;;;;9.23;8.63;;;;;;;;;;5059547;28;20040;-67
2022/06/24 01:04:17;;;;;;;8.65;7.85;;;;;;;;;;5055938;28;20086;-66
2022/06/24 01:06:44;;;;;;;10.10;9.50;;;;;;;;;;5057861;28;20036;-66
2022/06/24 01:09:10;;;;;;;10.18;9.57;;;;;;;;;;5054837;28;20481;-65
2022/06/24 01:11:43;;;;;;;9.60;8.93;;;;;;;;;;5053317;28;20039;-65
2022/06/24 01:14:09;;;;;;;11.20;10.38;;;;;;;;;;5055767;28;20048;-66
2022/06/24 01:16:35;;;;;;;9.00;8.40;;;;;;;;;;5057545;28;20082;-66
2022/06/24 01:19:03;;;;;;;9.65;9.05;;;;;;;;;;5061230;28;20379;-67
2022/06/24 01:21:49;;;;;;;24.83;23.48;;;;;;;;;;5059380;28;20089;-71
2022/06/24 01:24:16;;;;;;;36.92;35.03;;;;;;;;;;5051760;28;20033;-71
2022/06/24 01:26:45;;;;;;;30.67;28.75;;;;;;;;;;5057641;28;20124;-70
2022/06/24 01:29:11;;;;;;;40.92;38.85;;;;;;;;;;5055619;28;20033;-72
2022/06/24 01:31:38;;;;;;;42.53;40.35;;;;;;;;;;5058901;28;20451;-73
2022/06/24 01:34:04;;;;;;;44.15;41.90;;;;;;;;;;5054397;28;20032;-72
2022/06/24 01:36:30;;;;;;;45.15;42.75;;;;;;;;;;5056627;28;20042;-73
2022/06/24 01:38:55;;;;;;;35.92;34.10;;;;;;;;;;5056952;28;20743;-74
2022/06/24 01:41:20;;;;;;;26.63;25.23;;;;;;;;;;5052025;28;20115;-74
2022/06/24 01:43:46;;;;;;;31.50;29.90;;;;;;;;;;5052676;28;20040;-72
2022/06/24 01:46:12;;;;;;;23.75;21.00;;;;;;;;;;5055860;28;20087;-72
2022/06/24 01:48:38;;;;;;;22.65;21.45;;;;;;;;;;5053984;28;20366;-75
2022/06/24 01:51:05;;;;;;;25.48;24.15;;;;;;;;;;5053278;28;20037;-76
2022/06/24 01:53:30;;;;;;;34.33;32.53;;;;;;;;;;5049632;28;20037;-73
2022/06/24 01:55:56;;;;;;;24.83;23.50;;;;;;;;;;5052596;28;20979;-75
2022/06/24 01:58:21;;;;;;;35.65;33.80;;;;;;;;;;5050424;28;20227;-73
2022/06/24 02:00:46;;;;;;;24.67;23.33;;;;;;;;;;5051795;28;20141;-74
2022/06/24 02:03:12;;;;;;;24.10;22.80;;;;;;;;;;5053219;28;20032;-74
2022/06/24 02:05:38;;;;;;;22.30;21.10;;;;;;;;;;5051271;28;20032;-74
2022/06/24 02:08:04;;;;;;;23.58;22.30;;;;;;;;;;5057736;28;20586;-76
2022/06/24 02:13:28;;;;;;;25.42;24.10;;;;;;;;;;5051501;28;20112;-74
2022/06/24 02:16:00;;;;;;;25.90;24.45;;;;;;;;;;5052296;28;20029;-74
2022/06/24 02:18:26;;;;;;;28.30;26.80;;;;;;;;;;5052956;28;20090;-69
2022/06/24 02:20:52;;;;;;;28.17;26.73;;;;;;;;;;5055134;28;20035;-69
2022/06/24 02:23:18;;;;;;;26.60;25.20;;;;;;;;;;5055609;28;20033;-68
2022/06/24 02:25:45;;;;;;;31.27;29.60;;;;;;;;;;5055763;28;20029;-68
2022/06/24 02:28:11;;;;;;;35.78;33.95;;;;;;;;;;5057115;28;20055;-68
2022/06/24 02:30:37;;;;;;;33.55;31.83;;;;;;;;;;5055934;28;20036;-68
2022/06/24 02:33:03;;;;;;;27.25;25.80;;;;;;;;;;5054704;28;20037;-68
2022/06/24 02:35:28;;;;;;;25.52;24.00;;;;;;;;;;5053181;28;20032;-67
2022/06/24 02:37:53;;;;;;;29.73;28.17;;;;;;;;;;5049312;28;20128;-68
2022/06/24 02:43:11;;;;;;;29.15;27.60;;;;;;;;;;5056830;28;20620;-67
2022/06/24 02:45:37;;;;;;;37.63;35.65;;;;;;;;;;5053959;28;20086;-68
2022/06/24 02:48:03;;;;;;;37.97;36.03;;;;;;;;;;5057092;28;20601;-77
2022/06/24 02:50:29;;;;;;;35.70;33.85;;;;;;;;;;5055988;28;20382;-78
2022/06/24 02:52:54;;;;;;;51.95;49.35;;;;;;;;;;5056569;28;20040;-75
2022/06/24 02:55:19;;;;;;;38.25;36.28;;;;;;;;;;5056081;28;20032;-75
2022/06/24 02:57:44;;;;;;;55.58;52.78;;;;;;;;;;5057568;28;20041;-78
2022/06/24 03:00:10;;;;;;;54.42;51.67;;;;;;;;;;5053926;28;20028;-77
2022/06/24 03:02:36;;;;;;;72.97;69.35;;;;;;;;;;5050644;28;20039;-76
2022/06/24 03:05:01;;;;;;;68.20;64.78;;;;;;;;;;5051251;28;20029;-76
2022/06/24 03:07:26;;;;;;;73.35;69.55;;;;;;;;;;5054104;28;20037;-75
2022/06/24 03:09:52;;;;;;;81.45;77.38;;;;;;;;;;5052151;28;20028;-74
2022/06/24 03:12:17;;;;;;;67.85;64.40;;;;;;;;;;5052213;28;20028;-73
2022/06/24 03:14:42;;;;;;;73.05;69.40;;;;;;;;;;5051376;28;20766;-74
2022/06/24 03:17:08;;;;;;;93.75;89.10;;;;;;;;;;5052474;28;20060;-74
2022/06/24 03:19:33;;;;;;;87.72;83.38;;;;;;;;;;5053456;28;20032;-75
2022/06/24 03:21:58;;;;;;;88.97;84.55;;;;;;;;;;5051189;28;20098;-74
2022/06/24 03:24:24;;;;;;;86.63;82.35;;;;;;;;;;5049357;28;20048;-73
2022/06/24 03:26:49;;;;;;;70.07;66.53;;;;;;;;;;5051768;28;20044;-73
2022/06/24 03:29:14;;;;;;;82.72;78.60;;;;;;;;;;5052811;28;20040;-74
2022/06/24 03:31:40;;;;;;;105.47;100.25;;;;;;;;;;5053560;28;20048;-75
2022/06/24 03:34:05;;;;;;;108.55;102.97;;;;;;;;;;5049518;28;20047;-79
2022/06/24 03:36:30;;;;;;;98.70;93.82;;;;;;;;;;5054225;28;20068;-69
2022/06/24 03:38:56;;;;;;;107.80;102.30;;;;;;;;;;5056224;28;20025;-69
2022/06/24 03:41:21;;;;;;;110.38;104.95;;;;;;;;;;5055502;28;20641;-70
2022/06/24 03:43:47;;;;;;;108.95;103.57;;;;;;;;;;5053787;28;20107;-70
2022/06/24 03:46:12;;;;;;;112.85;107.22;;;;;;;;;;5059749;28;20089;-69
2022/06/24 03:48:37;;;;;;;122.20;116.13;;;;;;;;;;5054139;28;20043;-69
2022/06/24 03:51:03;;;;;;;129.68;123.28;;;;;;;;;;5056476;28;20033;-69
2022/06/24 03:53:31;;;;;;;148.82;141.48;;;;;;;;;;5052114;28;20036;-69
2022/06/24 03:55:56;;;;;;;146.57;138.27;;;;;;;;;;5052389;28;20033;-70
2022/06/24 03:58:21;;;;;;;134.50;127.88;;;;;;;;;;5054015;28;20098;-69
2022/06/24 04:00:47;;;;;;;173.00;164.50;;;;;;;;;;5053790;28;20029;-70
2022/06/24 04:03:12;;;;;;;195.30;185.73;;;;;;;;;;5054081;28;20107;-71
2022/06/24 04:05:38;;;;;;;192.68;183.20;;;;;;;;;;5055469;28;20130;-72
2022/06/24 04:08:04;;;;;;;176.68;168.00;;;;;;;;;;5054584;28;20127;-69
2022/06/24 04:10:29;;;;;;;146.10;138.85;;;;;;;;;;5053188;28;20036;-69
2022/06/24 04:12:55;;;;;;;152.60;145.07;;;;;;;;;;5051128;28;20029;-68
2022/06/24 04:15:20;;;;;;;133.40;126.65;;;;;;;;;;5055236;28;20041;-70
2022/06/24 04:17:47;;;;;;;124.35;118.15;;;;;;;;;;5051146;28;20128;-70
2022/06/24 04:20:15;;;;;;;114.43;108.72;;;;;;;;;;5056098;28;20029;-70
2022/06/24 04:22:41;;;;;;;120.75;114.75;;;;;;;;;;5053692;28;20119;-71
2022/06/24 04:25:07;;;;;;;141.95;134.90;;;;;;;;;;5055747;28;20043;-71
2022/06/24 04:27:32;;;;;;;105.50;100.30;;;;;;;;;;5055913;28;20149;-71
2022/06/24 04:30:03;;;;;;;142.05;134.85;;;;;;;;;;5053651;28;20125;-71
2022/06/24 04:32:28;;;;;;;;;;;;;;;;;;5055773;28;20021;-71
2022/06/24 04:34:54;;;;;;;99.63;94.68;;;;;;;;;;5053879;28;19939;-71
2022/06/24 04:37:19;;;;;;;159.40;151.52;;;;;;;;;;5052926;28;20421;-71
2022/06/24 04:39:44;;;;;;;146.27;139.05;;;;;;;;;;5053077;28;20064;-70
2022/06/24 04:42:10;;;;;;;158.07;150.27;;;;;;;;;;5052886;28;20126;-69
2022/06/24 04:44:36;;;;;;;143.52;136.40;;;;;;;;;;5054217;28;20078;-70
2022/06/24 04:47:01;;;;;;;157.18;149.45;;;;;;;;;;5050931;28;20684;-71
2022/06/24 04:49:27;;;;;;;125.03;118.80;;;;;;;;;;5052495;28;20033;-69
2022/06/24 04:51:52;;;;;;;116.07;110.32;;;;;;;;;;5052943;28;20048;-68
2022/06/24 04:54:17;;;;;;;114.72;109.03;;;;;;;;;;5054282;28;20649;-65
2022/06/24 04:56:43;;;;;;;80.78;76.78;;;;;;;;;;5054141;28;20402;-66
2022/06/24 04:59:08;;;;;;;86.18;81.78;;;;;;;;;;5052325;28;20461;-67
2022/06/24 05:01:33;;;;;;;107.35;102.05;;;;;;;;;;5055754;28;20025;-68
2022/06/24 05:04:00;;;;;;;73.57;69.88;;;;;;;;;;5054695;28;20056;-70
2022/06/24 05:06:25;;;;;;;72.85;69.20;;;;;;;;;;5055490;28;20039;-68
2022/06/24 05:08:51;;;;;;;104.65;99.47;;;;;;;;;;5054157;28;20131;-69
2022/06/24 05:11:16;;;;;;;76.88;73.07;;;;;;;;;;5052134;28;20391;-69
2022/06/24 05:13:41;;;;;;;91.95;87.38;;;;;;;;;;5057366;28;20111;-68
2022/06/24 05:16:07;;;;;;;115.72;110.00;;;;;;;;;;5052321;28;20032;-68
2022/06/24 05:18:32;;;;;;;96.90;92.10;;;;;;;;;;5053362;28;20478;-68
2022/06/24 05:20:57;;;;;;;98.63;93.72;;;;;;;;;;5053432;28;20203;-68
2022/06/24 05:23:23;;;;;;;106.03;100.78;;;;;;;;;;5052406;28;20047;-68
2022/06/24 05:25:48;;;;;;;113.05;107.50;;;;;;;;;;5056589;28;20020;-69
2022/06/24 05:28:13;;;;;;;129.77;123.20;;;;;;;;;;5055356;28;20025;-69
2022/06/24 05:30:39;;;;;;;159.32;151.40;;;;;;;;;;5049537;28;20064;-70
2022/06/24 05:33:04;;;;;;;128.70;122.30;;;;;;;;;;5055838;28;20079;-70
2022/06/24 05:35:30;;;;;;;121.63;115.57;;;;;;;;;;5060720;28;20036;-69
2022/06/24 05:37:55;;;;;;;158.27;150.43;;;;;;;;;;5053695;28;20040;-70
2022/06/24 05:40:20;;;;;;;125.25;119.03;;;;;;;;;;5053152;28;20056;-70
2022/06/24 05:42:46;;;;;;;114.60;108.90;;;;;;;;;;5053928;28;20036;-71
2022/06/24 05:45:11;;;;;;;94.65;89.88;;;;;;;;;;5055805;28;20025;-71
2022/06/24 05:47:36;;;;;;;92.68;88.03;;;;;;;;;;5057022;28;20043;-71
2022/06/24 05:50:02;;;;;;;115.50;109.75;;;;;;;;;;5058864;28;20056;-71
2022/06/24 05:55:11;;;;;;;97.35;92.50;;;;;;;;;;5057813;28;20029;-71
2022/06/24 05:57:37;;;;;;;92.13;87.53;;;;;;;;;;5058926;28;20029;-72
2022/06/24 06:00:03;;;;;;;127.60;121.22;;;;;;;;;;5057798;28;20611;-72
2022/06/24 06:02:28;;;;;;;116.50;110.65;;;;;;;;;;5050353;28;20625;-71
2022/06/24 06:04:54;;;;;;;137.38;130.48;;;;;;;;;;5056055;28;20025;-71
2022/06/24 06:07:20;;;;;;;137.65;130.40;;;;;;;;;;5051170;28;20052;-71
2022/06/24 06:09:45;;;;;;;138.30;131.30;;;;;;;;;;5060759;28;20021;-72
2022/06/24 06:12:10;;;;;;;134.57;127.85;;;;;;;;;;5056235;28;20443;-71
2022/06/24 06:14:36;;;;;;;150.93;142.95;;;;;;;;;;5056027;28;20454;-72
2022/06/24 06:17:02;;;;;;;116.25;110.50;;;;;;;;;;5058974;28;20624;-71
2022/06/24 06:19:27;;;;;;;108.85;103.47;;;;;;;;;;5057234;28;20430;-71
2022/06/24 06:21:53;;;;;;;80.75;76.75;;;;;;;;;;5057333;28;20029;-72
2022/06/24 06:24:18;;;;;;;84.47;80.07;;;;;;;;;;5054397;28;20037;-71
2022/06/24 06:26:44;;;;;;;81.50;77.43;;;;;;;;;;5055778;28;20037;-72
2022/06/24 06:29:09;;;;;;;69.45;65.88;;;;;;;;;;5057064;28;20066;-70
2022/06/24 06:31:35;;;;;;;65.82;62.50;;;;;;;;;;5053772;28;20083;-72
2022/06/24 06:34:00;;;;;;;65.70;62.38;;;;;;;;;;5054200;28;20045;-71
2022/06/24 06:36:25;;;;;;;65.47;62.17;;;;;;;;;;5057091;28;20055;-70
2022/06/24 06:38:51;;;;;;;65.80;62.50;;;;;;;;;;5056777;28;20029;-71
2022/06/24 06:41:17;;;;;;;62.00;58.88;;;;;;;;;;5055559;28;20056;-71
2022/06/24 06:43:42;;;;;;;69.65;66.18;;;;;;;;;;5054730;28;20055;-72
2022/06/24 06:46:12;;;;;;;64.97;61.67;;;;;;;;;;5054491;28;20036;-71
2022/06/24 06:48:39;;;;;;;57.57;54.67;;;;;;;;;;5055305;28;20455;-71
2022/06/24 06:51:04;;;;;;;50.47;47.92;;;;;;;;;;5054930;28;20032;-71
2022/06/24 06:53:30;;;;;;;38.03;36.05;;;;;;;;;;5056141;28;20062;-71
2022/06/24 06:55:56;;;;;;;51.45;48.85;;;;;;;;;;5055761;28;20187;-68
2022/06/24 06:58:22;;;;;;;49.92;47.40;;;;;;;;;;5054677;28;20498;-71
2022/06/24 07:00:48;;;;;;;45.88;43.45;;;;;;;;;;5055883;28;20032;-71
2022/06/24 07:03:13;;;;;;;54.75;52.00;;;;;;;;;;5054891;28;20048;-70
2022/06/24 07:05:39;;;;;;;34.42;32.65;;;;;;;;;;5060447;28;20579;-71
2022/06/24 07:08:05;;;;;;;45.55;43.25;;;;;;;;;;5057406;28;20056;-71
2022/06/24 07:10:30;;;;;;;48.60;46.13;;;;;;;;;;5052797;28;20130;-70
2022/06/24 07:12:56;;;;;;;41.20;39.10;;;;;;;;;;5056100;28;20033;-70
2022/06/24 07:15:21;;;;;;;56.53;53.67;;;;;;;;;;5055581;28;20032;-70
2022/06/24 07:17:46;;;;;;;56.08;53.28;;;;;;;;;;5058220;28;20035;-70
2022/06/24 07:20:12;;;;;;;64.20;61.00;;;;;;;;;;5055980;28;20021;-70
2022/06/24 07:22:39;;;;;;;62.75;59.60;;;;;;;;;;5056595;28;20132;-70
2022/06/24 07:25:05;;;;;;;69.38;65.82;;;;;;;;;;5059502;28;20114;-70
2022/06/24 07:27:30;;;;;;;70.30;66.80;;;;;;;;;;5057279;28;20545;-69
2022/06/24 07:29:56;;;;;;;79.68;75.72;;;;;;;;;;5054821;28;20051;-70
2022/06/24 07:32:21;;;;;;;81.15;77.15;;;;;;;;;;5055643;28;20118;-69
2022/06/24 07:34:46;;;;;;;77.88;74.03;;;;;;;;;;5057440;28;20028;-69
2022/06/24 07:37:12;;;;;;;71.97;68.40;;;;;;;;;;5055915;28;20029;-70
2022/06/24 07:39:38;;;;;;;80.03;76.07;;;;;;;;;;5050725;28;20033;-70
2022/06/24 07:42:05;;;;;;;66.35;62.92;;;;;;;;;;5054011;28;20443;-70
2022/06/24 07:44:30;;;;;;;47.83;45.42;;;;;;;;;;5054222;28;20052;-70
2022/06/24 07:46:57;;;;;;;68.18;64.45;;;;;;;;;;5055279;28;20035;-70
2022/06/24 07:49:23;;;;;;;56.78;53.92;;;;;;;;;;5055534;28;20029;-70
2022/06/24 07:51:48;;;;;;;42.55;40.35;;;;;;;;;;5052751;28;20036;-70
2022/06/24 07:54:14;;;;;;;64.00;60.80;;;;;;;;;;5053721;28;20527;-70
2022/06/24 07:56:57;;;;;;;62.78;59.63;;;;;;;;;;5054469;28;20649;-69
2022/06/24 07:59:33;;;;;;;70.90;67.40;;;;;;;;;;5057965;28;20462;-71
2022/06/24 08:02:00;;;;;;;76.25;72.47;;;;;;;;;;5053568;28;20422;-69
2022/06/24 08:04:28;;;;;;;48.78;46.30;;;;;;;;;;5054212;28;20103;-69
2022/06/24 08:06:54;;;;;;;50.88;48.30;;;;;;;;;;5056796;28;20035;-67
2022/06/24 08:09:25;;;;;;;46.92;44.53;;;;;;;;;;5057158;28;20040;-70
2022/06/24 08:11:51;;;;;;;40.20;37.58;;;;;;;;;;5053189;28;20066;-69
2022/06/24 08:14:17;;;;;;;34.85;32.95;;;;;;;;;;5055164;28;20402;-69
2022/06/24 08:16:44;;;;;;;42.30;40.10;;;;;;;;;;5056493;28;20033;-68
2022/06/24 08:19:09;;;;;;;36.63;34.72;;;;;;;;;;5056104;28;20102;-67
2022/06/24 08:21:34;;;;;;;42.72;40.50;;;;;;;;;;5055395;28;20518;-69
2022/06/24 08:24:00;;;;;;;46.42;44.05;;;;;;;;;;5053355;28;20033;-67
2022/06/24 08:26:26;;;;;;;42.05;39.90;;;;;;;;;;5053055;28;20051;-70
2022/06/24 08:28:51;;;;;;;39.97;37.33;;;;;;;;;;5052508;28;20485;-70
2022/06/24 08:31:16;;;;;;;42.92;40.70;;;;;;;;;;5055101;28;20067;-71
2022/06/24 08:33:42;;;;;;;48.55;46.08;;;;;;;;;;5054629;28;20067;-73
2022/06/24 08:36:08;;;;;;;51.10;48.50;;;;;;;;;;5052754;28;20435;-71
2022/06/24 08:38:33;;;;;;;51.80;49.20;;;;;;;;;;5053715;28;20472;-69
2022/06/24 08:41:01;;;;;;;51.70;49.05;;;;;;;;;;5054700;28;20057;-71
2022/06/24 08:43:33;;;;;;;46.60;44.20;;;;;;;;;;5053885;28;20340;-71
2022/06/24 08:46:00;;;;;;;50.83;48.17;;;;;;;;;;5060880;28;20495;-69
2022/06/24 08:48:27;;;;;;;46.05;43.65;;;;;;;;;;5051951;28;20631;-70
2022/06/24 08:50:53;;;;;;;46.80;44.40;;;;;;;;;;5069381;28;20044;-71
2022/06/24 08:53:21;;;;;;;46.85;44.47;;;;;;;;;;5053473;28;20082;-69
2022/06/24 08:55:50;;;;;;;44.13;41.92;;;;;;;;;;5055360;28;20086;-69
2022/06/24 08:58:16;;;;;;;41.22;39.13;;;;;;;;;;5053619;28;20047;-70
2022/06/24 09:00:41;;;;;;;48.20;45.75;;;;;;;;;;5056284;28;20100;-72
2022/06/24 09:03:07;;;;;;;44.17;41.78;;;;;;;;;;5041038;28;20154;-66
2022/06/24 09:05:33;;;;;;;46.25;43.75;;;;;;;;;;5056355;28;20032;-66
2022/06/24 09:08:05;;;;;;;43.92;41.72;;;;;;;;;;5053404;28;20043;-65
2022/06/24 09:10:31;;;;;;;46.60;44.22;;;;;;;;;;5061900;28;20128;-66
2022/06/24 09:12:57;;;;;;;42.40;40.22;;;;;;;;;;5060142;28;20409;-65
2022/06/24 09:15:22;;;;;;;48.88;46.38;;;;;;;;;;5057146;28;20698;-67
2022/06/24 09:17:48;;;;;;;46.53;44.13;;;;;;;;;;5059244;28;20419;-66
2022/06/24 09:20:22;;;;;;;45.72;43.42;;;;;;;;;;5059058;28;20039;-64
2022/06/24 09:22:48;;;;;;;44.45;42.15;;;;;;;;;;5059007;28;20041;-68
2022/06/24 09:25:14;;;;;;;49.83;47.22;;;;;;;;;;5056909;28;20082;-67
2022/06/24 09:27:46;;;;;;;48.33;45.90;;;;;;;;;;5058740;28;20476;-68
2022/06/24 09:30:14;;;;;;;40.90;38.80;;;;;;;;;;5059253;28;20037;-66
2022/06/24 09:32:54;;;;;;;37.03;35.10;;;;;;;;;;5057964;28;20037;-67
2022/06/24 09:35:22;;;;;;;44.38;42.10;;;;;;;;;;5055621;28;20029;-69
2022/06/24 09:37:50;;;;;;;42.95;40.75;;;;;;;;;;5057504;28;20041;-68
2022/06/24 09:40:29;;;;;;;41.88;39.78;;;;;;;;;;5053745;28;20051;-68
2022/06/24 09:42:58;;;;;;;40.60;38.53;;;;;;;;;;5057255;28;20578;-66
2022/06/24 09:45:25;;;;;;;41.22;38.83;;;;;;;;;;5058763;28;20044;-68
2022/06/24 09:47:52;;;;;;;40.00;38.00;;;;;;;;;;5057323;28;20047;-66
2022/06/24 09:50:19;;;;;;;32.17;30.42;;;;;;;;;;5057303;28;20621;-68
2022/06/24 09:52:45;;;;;;;35.17;33.38;;;;;;;;;;5057945;28;20087;-68
2022/06/24 09:55:11;;;;;;;37.05;35.15;;;;;;;;;;5058166;28;20682;-67
2022/06/24 09:57:38;;;;;;;38.90;36.90;;;;;;;;;;5063788;28;20033;-68
2022/06/24 10:02:49;;;;;;;49.70;46.63;;;;;;;;;;5054416;28;20449;-65
2022/06/24 10:05:18;;;;;;;48.13;45.63;;;;;;;;;;5059650;28;20118;-64
2022/06/24 10:07:46;;;;;;;36.50;34.60;;;;;;;;;;5056732;28;20036;-66
2022/06/24 10:10:14;;;;;;;40.50;38.42;;;;;;;;;;5064348;28;20032;-65
2022/06/24 10:12:46;;;;;;;43.83;41.60;;;;;;;;;;5058486;28;20059;-65
2022/06/24 10:15:14;;;;;;;38.65;36.63;;;;;;;;;;5057599;28;20110;-66
2022/06/24 10:17:42;;;;;;;36.58;34.67;;;;;;;;;;5055808;28;20102;-66
2022/06/24 10:20:10;;;;;;;39.60;37.58;;;;;;;;;;5058087;28;20442;-66
2022/06/24 10:22:36;;;;;;;34.63;32.63;;;;;;;;;;5058271;28;20509;-67
2022/06/24 10:25:02;;;;;;;45.88;43.47;;;;;;;;;;5057704;28;20047;-67
2022/06/24 10:28:12;;;;;;;47.47;45.08;;;;;;;;;;5054223;28;20032;-65
2022/06/24 10:30:41;;;;;;;44.70;42.45;;;;;;;;;;5054584;28;20124;-66
2022/06/24 10:33:21;;;;;;;54.83;52.05;;;;;;;;;;5057348;28;20127;-66
2022/06/24 10:36:03;;;;;;;56.25;53.40;;;;;;;;;;5056191;28;20037;-66
2022/06/24 10:38:37;;;;;;;51.42;48.83;;;;;;;;;;5056633;28;20052;-65
2022/06/24 10:41:04;;;;;;;39.00;37.00;;;;;;;;;;5057545;28;20025;-65
2022/06/24 10:43:34;;;;;;;53.20;50.50;;;;;;;;;;5057653;28;20064;-64
2022/06/24 10:46:16;;;;;;;56.40;53.60;;;;;;;;;;5057603;28;20124;-64
2022/06/24 10:48:44;;;;;;;51.22;48.63;;;;;;;;;;5055490;28;20136;-64
2022/06/24 10:51:14;;;;;;;66.07;62.80;;;;;;;;;;5056464;28;20028;-65
2022/06/24 10:54:01;;;;;;;64.75;61.53;;;;;;;;;;5055347;28;20044;-63
2022/06/24 10:56:49;;;;;;;70.63;67.13;;;;;;;;;;5054019;28;20032;-63
2022/06/24 10:59:20;;;;;;;56.25;53.35;;;;;;;;;;5057446;28;20017;-63
2022/06/24 11:01:50;;;;;;;56.63;53.78;;;;;;;;;;5063740;28;20064;-63
2022/06/24 11:04:22;;;;;;;61.90;58.80;;;;;;;;;;5052648;28;20338;-63
2022/06/24 11:07:08;;;;;;;62.90;59.80;;;;;;;;;;5058033;28;20048;-62
2022/06/24 11:09:35;;;;;;;71.03;67.50;;;;;;;;;;5054470;28;20035;-62
2022/06/24 11:12:04;;;;;;;65.55;62.25;;;;;;;;;;5058488;28;20028;-62
2022/06/24 11:14:30;;;;;;;57.85;54.65;;;;;;;;;;5054027;28;20132;-63
2022/06/24 11:16:55;;;;;;;61.78;58.65;;;;;;;;;;5056328;28;20127;-62
2022/06/24 11:19:20;;;;;;;68.75;65.30;;;;;;;;;;5058662;28;20089;-63
2022/06/24 11:21:47;;;;;;;65.78;62.47;;;;;;;;;;5051937;28;20025;-62
2022/06/24 11:24:15;;;;;;;62.58;59.47;;;;;;;;;;5055230;28;20024;-64
2022/06/24 11:26:40;;;;;;;67.47;64.10;;;;;;;;;;5055727;28;20036;-64
2022/06/24 11:29:06;;;;;;;79.28;75.35;;;;;;;;;;5059644;28;20033;-63
2022/06/24 11:31:33;;;;;;;95.90;91.18;;;;;;;;;;5056000;28;20021;-64
2022/06/24 11:34:04;;;;;;;72.20;68.60;;;;;;;;;;5054779;28;20135;-63
2022/06/24 11:36:31;;;;;;;80.18;76.20;;;;;;;;;;5054638;28;20127;-63
2022/06/24 11:38:59;;;;;;;94.05;89.45;;;;;;;;;;5055152;28;20036;-63
2022/06/24 11:41:32;;;;;;;71.20;67.68;;;;;;;;;;5054324;28;20052;-65
2022/06/24 11:43:58;;;;;;;83.25;79.15;;;;;;;;;;5061299;28;20233;-65
2022/06/24 11:46:24;;;;;;;86.97;82.68;;;;;;;;;;5054631;28;20037;-65
2022/06/24 11:49:07;;;;;;;109.53;104.13;;;;;;;;;;5055030;28;20098;-64
2022/06/24 11:51:33;;;;;;;132.35;125.85;;;;;;;;;;5054589;28;20458;-64
2022/06/24 11:54:00;;;;;;;117.32;111.53;;;;;;;;;;5057583;28;20064;-65
2022/06/24 11:56:28;;;;;;;128.20;121.88;;;;;;;;;;5055412;28;20029;-65
2022/06/24 11:58:55;;;;;;;154.32;146.73;;;;;;;;;;5054462;28;20028;-64
2022/06/24 12:01:22;;;;;;;171.40;162.98;;;;;;;;;;5053361;28;20029;-65
2022/06/24 12:03:50;;;;;;;176.93;168.23;;;;;;;;;;5054630;28;20466;-65
2022/06/24 12:06:16;;;;;;;171.48;163.05;;;;;;;;;;5055143;28;20033;-64
2022/06/24 12:08:42;;;;;;;169.82;161.50;;;;;;;;;;5056107;28;20047;-65
2022/06/24 12:11:18;;;;;;;173.18;164.68;;;;;;;;;;5052636;28;20037;-65
2022/06/24 12:14:07;;;;;;;192.85;183.40;;;;;;;;;;5052909;28;20029;-64
2022/06/24 12:16:59;;;;;;;189.75;180.45;;;;;;;;;;5054764;28;20489;-64
2022/06/24 12:19:31;;;;;;;183.77;174.75;;;;;;;;;;5055292;28;20029;-63
2022/06/24 12:22:05;;;;;;;192.43;183.02;;;;;;;;;;5057112;28;20041;-63
2022/06/24 12:24:30;;;;;;;218.90;208.25;;;;;;;;;;5054015;28;20712;-63
2022/06/24 12:26:57;;;;;;;202.90;192.93;;;;;;;;;;5051636;28;20036;-63
2022/06/24 12:29:32;;;;;;;244.55;232.50;;;;;;;;;;5053700;28;20033;-63
2022/06/24 12:31:58;;;;;;;243.63;231.73;;;;;;;;;;5053918;28;20040;-63
2022/06/24 12:34:31;;;;;;;240.45;228.70;;;;;;;;;;5053853;28;20086;-64
2022/06/24 12:37:05;;;;;;;249.30;237.13;;;;;;;;;;5053903;28;20098;-63
2022/06/24 12:39:33;;;;;;;259.35;246.60;;;;;;;;;;5061775;28;20458;-64
2022/06/24 12:41:59;;;;;;;249.23;236.88;;;;;;;;;;5055006;28;20047;-63
2022/06/24 12:44:30;;;;;;;254.85;242.35;;;;;;;;;;5057282;28;20462;-63
2022/06/24 12:52:33;;;;;;;250.25;238.00;;;;;;;;;;5057883;28;20359;-63
2022/06/24 12:54:59;;;;;;;270.38;257.10;;;;;;;;;;5058770;28;20039;-64
2022/06/24 12:57:25;;;;;;;255.68;243.15;;;;;;;;;;5057827;28;20048;-64
2022/06/24 12:59:50;;;;;;;266.98;253.80;;;;;;;;;;5057143;28;20454;-64
2022/06/24 13:02:16;;;;;;;250.55;238.30;;;;;;;;;;5055898;28;20029;-64
2022/06/24 13:04:41;;;;;;;247.65;235.50;;;;;;;;;;5058641;28;20047;-63
2022/06/24 13:07:06;;;;;;;233.82;222.38;;;;;;;;;;5061046;28;20124;-64
2022/06/24 13:09:32;;;;;;;240.43;228.52;;;;;;;;;;5057862;28;20036;-64
2022/06/24 13:11:58;;;;;;;258.15;245.48;;;;;;;;;;5058872;28;20044;-64
2022/06/24 13:14:23;;;;;;;262.25;249.45;;;;;;;;;;5056238;28;20037;-64
2022/06/24 13:16:48;;;;;;;269.52;256.25;;;;;;;;;;5057106;28;20131;-63
2022/06/24 13:19:14;;;;;;;269.33;256.13;;;;;;;;;;5062106;28;20029;-64
2022/06/24 13:21:40;;;;;;;282.80;268.90;;;;;;;;;;5062603;28;20032;-63
2022/06/24 13:24:05;;;;;;;281.63;267.77;;;;;;;;;;5058436;28;20064;-64
2022/06/24 13:26:30;;;;;;;271.35;258.02;;;;;;;;;;5054514;28;20120;-63
2022/06/24 13:28:56;;;;;;;292.13;277.73;;;;;;;;;;5058043;28;20028;-64
2022/06/24 13:31:22;;;;;;;297.92;283.20;;;;;;;;;;5057872;28;20025;-64
2022/06/24 13:33:48;;;;;;;272.85;259.38;;;;;;;;;;5060138;28;20024;-66
2022/06/24 13:36:14;;;;;;;291.02;276.77;;;;;;;;;;5054146;28;20386;-65
2022/06/24 13:38:39;;;;;;;246.95;234.85;;;;;;;;;;5058625;28;20272;-66
2022/06/24 13:41:04;;;;;;;289.30;274.92;;;;;;;;;;5058474;28;20047;-65
2022/06/24 13:43:30;;;;;;;262.45;249.57;;;;;;;;;;5058512;28;20031;-64
2022/06/24 13:45:55;;;;;;;239.73;228.00;;;;;;;;;;5058105;28;20067;-65
2022/06/24 13:48:21;;;;;;;214.35;203.85;;;;;;;;;;5058548;28;20036;-66
2022/06/24 13:50:46;;;;;;;267.30;254.20;;;;;;;;;;5057667;28;20610;-68
2022/06/24 13:53:11;;;;;;;197.32;186.98;;;;;;;;;;5054444;28;20061;-66
2022/06/24 13:55:37;;;;;;;241.68;229.82;;;;;;;;;;5055308;28;20086;-66
2022/06/24 13:58:02;;;;;;;229.20;218.00;;;;;;;;;;5053994;28;20028;-66
2022/06/24 14:00:28;;;;;;;207.02;196.90;;;;;;;;;;5057989;28;20098;-67
2022/06/24 14:02:53;;;;;;;216.82;206.18;;;;;;;;;;5059469;28;20728;-67
2022/06/24 14:05:19;;;;;;;190.85;181.43;;;;;;;;;;5060527;28;20137;-68
2022/06/24 14:07:44;;;;;;;216.32;205.73;;;;;;;;;;5060246;28;20374;-67
2022/06/24 14:10:10;;;;;;;255.40;242.82;;;;;;;;;;5056875;28;20409;-67
2022/06/24 14:12:36;;;;;;;204.95;194.88;;;;;;;;;;5058822;28;20521;-68
2022/06/24 14:15:02;;;;;;;210.02;199.73;;;;;;;;;;5056363;28;20102;-67
2022/06/24 14:17:27;;;;;;;237.55;225.95;;;;;;;;;;5055528;28;20437;-68
2022/06/24 14:19:53;;;;;;;289.13;274.77;;;;;;;;;;5052252;28;20033;-67
2022/06/24 14:22:18;;;;;;;238.57;226.88;;;;;;;;;;5054417;28;20043;-62
2022/06/24 14:24:45;;;;;;;258.20;245.55;;;;;;;;;;5056369;28;20032;-63
2022/06/24 14:27:10;;;;;;;215.60;205.10;;;;;;;;;;5056271;28;20029;-63